sensor_id;sensor_type;location;lat;lon;timestamp;pressure;altitude;pressure_sealevel;temperature;humidity
24234;BME280;12365;43.554;1.388;2022-07-29T00:00:56;99796.19;;;27.63;40.96
24234;BME280;12365;43.554;1.388;2022-07-29T00:03:22;99799.84;;;27.59;40.99
24234;BME280;12365;43.554;1.388;2022-07-29T00:05:47;99794.56;;;27.56;41.13
24234;BME280;12365;43.554;1.388;2022-07-29T00:08:13;99786.59;;;27.52;41.39
24234;BME280;12365;43.554;1.388;2022-07-29T00:10:38;99798.28;;;27.49;41.58
24234;BME280;12365;43.554;1.388;2022-07-29T00:13:04;99793.00;;;27.44;41.82
24234;BME280;12365;43.554;1.388;2022-07-29T00:15:29;99775.19;;;27.42;41.84
24234;BME280;12365;43.554;1.388;2022-07-29T00:17:55;99760.03;;;27.41;42.32
24234;BME280;12365;43.554;1.388;2022-07-29T00:20:20;99754.69;;;27.39;42.46
24234;BME280;12365;43.554;1.388;2022-07-29T00:22:45;99750.34;;;27.35;42.07
24234;BME280;12365;43.554;1.388;2022-07-29T00:25:12;99742.31;;;27.34;42.30
24234;BME280;12365;43.554;1.388;2022-07-29T00:27:38;99736.09;;;27.32;42.21
24234;BME280;12365;43.554;1.388;2022-07-29T00:30:04;99753.97;;;27.33;42.13
24234;BME280;12365;43.554;1.388;2022-07-29T00:32:30;99731.75;;;27.28;42.46
24234;BME280;12365;43.554;1.388;2022-07-29T00:34:55;99725.59;;;27.22;42.22
24234;BME280;12365;43.554;1.388;2022-07-29T00:37:39;99731.81;;;27.23;42.43
24234;BME280;12365;43.554;1.388;2022-07-29T00:40:05;99733.56;;;27.24;42.42
24234;BME280;12365;43.554;1.388;2022-07-29T00:42:31;99746.16;;;27.20;42.54
24234;BME280;12365;43.554;1.388;2022-07-29T00:45:06;99752.50;;;27.15;42.24
24234;BME280;12365;43.554;1.388;2022-07-29T00:47:31;99757.03;;;27.11;42.58
24234;BME280;12365;43.554;1.388;2022-07-29T00:49:57;99760.75;;;27.04;42.14
24234;BME280;12365;43.554;1.388;2022-07-29T00:52:22;99754.59;;;26.99;42.18
24234;BME280;12365;43.554;1.388;2022-07-29T00:54:48;99744.81;;;26.96;42.35
24234;BME280;12365;43.554;1.388;2022-07-29T00:57:13;99729.69;;;26.94;42.24
24234;BME280;12365;43.554;1.388;2022-07-29T00:59:39;99712.75;;;26.93;42.18
24234;BME280;12365;43.554;1.388;2022-07-29T01:02:04;99718.97;;;26.94;42.07
24234;BME280;12365;43.554;1.388;2022-07-29T01:04:30;99727.94;;;26.93;41.69
24234;BME280;12365;43.554;1.388;2022-07-29T01:06:56;99751.25;;;26.88;41.83
24234;BME280;12365;43.554;1.388;2022-07-29T01:09:22;99758.56;;;26.79;42.36
24234;BME280;12365;43.554;1.388;2022-07-29T01:11:48;99747.13;;;26.70;42.67
24234;BME280;12365;43.554;1.388;2022-07-29T01:14:14;99724.06;;;26.63;43.12
24234;BME280;12365;43.554;1.388;2022-07-29T01:16:58;99716.25;;;26.49;43.94
24234;BME280;12365;43.554;1.388;2022-07-29T01:19:47;99714.69;;;26.37;44.09
24234;BME280;12365;43.554;1.388;2022-07-29T01:27:57;99721.56;;;25.99;45.47
24234;BME280;12365;43.554;1.388;2022-07-29T01:30:27;99719.06;;;25.88;46.11
24234;BME280;12365;43.554;1.388;2022-07-29T01:32:56;99728.03;;;25.81;46.39
24234;BME280;12365;43.554;1.388;2022-07-29T01:35:26;99735.25;;;25.76;47.02
24234;BME280;12365;43.554;1.388;2022-07-29T01:38:20;99732.63;;;25.71;47.14
24234;BME280;12365;43.554;1.388;2022-07-29T01:40:53;99738.97;;;25.66;47.23
24234;BME280;12365;43.554;1.388;2022-07-29T01:43:21;99725.72;;;25.58;47.56
24234;BME280;12365;43.554;1.388;2022-07-29T01:45:56;99740.88;;;25.58;47.97
24234;BME280;12365;43.554;1.388;2022-07-29T01:48:27;99743.59;;;25.53;48.01
24234;BME280;12365;43.554;1.388;2022-07-29T01:53:37;99733.91;;;25.44;48.56
24234;BME280;12365;43.554;1.388;2022-07-29T01:56:06;99721.47;;;25.43;48.87
24234;BME280;12365;43.554;1.388;2022-07-29T01:58:35;99706.34;;;25.42;49.13
24234;BME280;12365;43.554;1.388;2022-07-29T02:01:02;99721.41;;;25.46;49.06
24234;BME280;12365;43.554;1.388;2022-07-29T02:03:31;99733.91;;;25.46;48.93
24234;BME280;12365;43.554;1.388;2022-07-29T02:05:58;99747.31;;;25.41;49.14
24234;BME280;12365;43.554;1.388;2022-07-29T02:08:25;99742.00;;;25.40;49.23
24234;BME280;12365;43.554;1.388;2022-07-29T02:10:52;99742.94;;;25.34;49.34
24234;BME280;12365;43.554;1.388;2022-07-29T02:13:20;99749.22;;;25.32;49.96
24234;BME280;12365;43.554;1.388;2022-07-29T02:15:49;99752.81;;;25.29;49.70
24234;BME280;12365;43.554;1.388;2022-07-29T02:18:18;99751.97;;;25.25;49.70
24234;BME280;12365;43.554;1.388;2022-07-29T02:20:47;99765.38;;;25.22;50.07
24234;BME280;12365;43.554;1.388;2022-07-29T02:23:17;99771.63;;;25.20;49.86
24234;BME280;12365;43.554;1.388;2022-07-29T02:25:44;99777.91;;;25.13;49.83
24234;BME280;12365;43.554;1.388;2022-07-29T02:28:13;99769.94;;;25.06;50.26
24234;BME280;12365;43.554;1.388;2022-07-29T02:30:41;99780.63;;;25.06;50.21
24234;BME280;12365;43.554;1.388;2022-07-29T02:33:08;99788.69;;;25.05;50.09
24234;BME280;12365;43.554;1.388;2022-07-29T02:35:35;99793.16;;;25.04;50.49
24234;BME280;12365;43.554;1.388;2022-07-29T02:38:01;99796.69;;;25.03;49.99
24234;BME280;12365;43.554;1.388;2022-07-29T02:40:48;99792.31;;;24.99;50.37
24234;BME280;12365;43.554;1.388;2022-07-29T02:43:13;99783.44;;;24.96;50.06
24234;BME280;12365;43.554;1.388;2022-07-29T02:45:39;99795.94;;;24.91;50.33
24234;BME280;12365;43.554;1.388;2022-07-29T02:48:13;99796.91;;;24.86;50.37
24234;BME280;12365;43.554;1.388;2022-07-29T02:50:51;99796.94;;;24.82;50.38
24234;BME280;12365;43.554;1.388;2022-07-29T02:53:23;99801.41;;;24.80;50.04
24234;BME280;12365;43.554;1.388;2022-07-29T02:58:39;99776.50;;;24.79;50.20
24234;BME280;12365;43.554;1.388;2022-07-29T03:01:14;99769.41;;;24.75;49.78
24234;BME280;12365;43.554;1.388;2022-07-29T03:03:42;99765.91;;;24.72;50.12
24234;BME280;12365;43.554;1.388;2022-07-29T03:06:09;99759.69;;;24.70;49.62
24234;BME280;12365;43.554;1.388;2022-07-29T03:08:36;99767.66;;;24.73;49.69
24234;BME280;12365;43.554;1.388;2022-07-29T03:11:02;99768.56;;;24.70;49.65
24234;BME280;12365;43.554;1.388;2022-07-29T03:13:29;99776.56;;;24.70;49.77
24234;BME280;12365;43.554;1.388;2022-07-29T03:15:56;99777.50;;;24.68;50.03
24234;BME280;12365;43.554;1.388;2022-07-29T03:18:23;99782.81;;;24.68;49.63
24234;BME280;12365;43.554;1.388;2022-07-29T03:20:49;99785.50;;;24.66;50.00
24234;BME280;12365;43.554;1.388;2022-07-29T03:23:22;99777.53;;;24.64;49.69
24234;BME280;12365;43.554;1.388;2022-07-29T03:25:52;99772.22;;;24.61;49.94
24234;BME280;12365;43.554;1.388;2022-07-29T03:28:18;99781.19;;;24.54;49.87
24234;BME280;12365;43.554;1.388;2022-07-29T03:30:43;99791.00;;;24.49;49.91
24234;BME280;12365;43.554;1.388;2022-07-29T03:33:09;99776.78;;;24.49;50.00
24234;BME280;12365;43.554;1.388;2022-07-29T03:35:34;99761.66;;;24.49;49.85
24234;BME280;12365;43.554;1.388;2022-07-29T03:38:00;99768.75;;;24.50;50.04
24234;BME280;12365;43.554;1.388;2022-07-29T03:43:10;99778.59;;;24.47;50.22
24234;BME280;12365;43.554;1.388;2022-07-29T03:45:36;99787.47;;;24.46;50.22
24234;BME280;12365;43.554;1.388;2022-07-29T03:48:09;99778.59;;;24.43;50.48
24234;BME280;12365;43.554;1.388;2022-07-29T03:50:35;99768.81;;;24.41;50.26
24234;BME280;12365;43.554;1.388;2022-07-29T03:53:02;99765.25;;;24.42;50.48
24234;BME280;12365;43.554;1.388;2022-07-29T03:55:30;99756.38;;;24.40;50.54
24234;BME280;12365;43.554;1.388;2022-07-29T03:57:57;99781.28;;;24.39;50.49
24234;BME280;12365;43.554;1.388;2022-07-29T04:00:26;99808.88;;;24.35;50.39
24234;BME280;12365;43.554;1.388;2022-07-29T04:02:52;99800.91;;;24.30;50.46
24234;BME280;12365;43.554;1.388;2022-07-29T04:05:18;99798.22;;;24.30;50.56
24234;BME280;12365;43.554;1.388;2022-07-29T04:07:44;99790.22;;;24.30;50.50
24234;BME280;12365;43.554;1.388;2022-07-29T04:10:10;99791.13;;;24.29;50.10
24234;BME280;12365;43.554;1.388;2022-07-29T04:12:35;99816.94;;;24.29;50.29
24234;BME280;12365;43.554;1.388;2022-07-29T04:15:03;99831.19;;;24.21;50.26
24234;BME280;12365;43.554;1.388;2022-07-29T04:17:28;99840.13;;;24.14;50.16
24234;BME280;12365;43.554;1.388;2022-07-29T04:19:54;99853.47;;;24.10;50.47
24234;BME280;12365;43.554;1.388;2022-07-29T04:22:19;99854.38;;;24.07;50.35
24234;BME280;12365;43.554;1.388;2022-07-29T04:24:44;99857.97;;;24.06;50.34
24234;BME280;12365;43.554;1.388;2022-07-29T04:27:10;99861.53;;;24.02;50.51
24234;BME280;12365;43.554;1.388;2022-07-29T04:29:35;99870.41;;;24.04;50.58
24234;BME280;12365;43.554;1.388;2022-07-29T04:32:01;99874.88;;;23.99;50.40
24234;BME280;12365;43.554;1.388;2022-07-29T04:34:26;99845.59;;;23.93;50.84
24234;BME280;12365;43.554;1.388;2022-07-29T04:36:51;99843.81;;;23.92;50.80
24234;BME280;12365;43.554;1.388;2022-07-29T04:39:17;99847.34;;;23.92;50.76
24234;BME280;12365;43.554;1.388;2022-07-29T04:41:43;99841.16;;;23.89;50.76
24234;BME280;12365;43.554;1.388;2022-07-29T04:44:09;99863.41;;;23.82;50.93
24234;BME280;12365;43.554;1.388;2022-07-29T04:46:34;99877.63;;;23.71;51.17
24234;BME280;12365;43.554;1.388;2022-07-29T04:49:00;99886.53;;;23.67;51.36
24234;BME280;12365;43.554;1.388;2022-07-29T04:51:25;99880.34;;;23.65;51.36
24234;BME280;12365;43.554;1.388;2022-07-29T04:53:51;99886.53;;;23.64;51.48
24234;BME280;12365;43.554;1.388;2022-07-29T04:56:16;99885.69;;;23.61;51.47
24234;BME280;12365;43.554;1.388;2022-07-29T04:58:41;99887.50;;;23.52;51.38
24234;BME280;12365;43.554;1.388;2022-07-29T05:01:07;99875.03;;;23.47;51.66
24234;BME280;12365;43.554;1.388;2022-07-29T05:03:32;99870.59;;;23.49;51.91
24234;BME280;12365;43.554;1.388;2022-07-29T05:05:58;99874.19;;;23.48;51.99
24234;BME280;12365;43.554;1.388;2022-07-29T05:08:23;99854.63;;;23.49;51.88
24234;BME280;12365;43.554;1.388;2022-07-29T05:10:48;99851.97;;;23.50;52.07
24234;BME280;12365;43.554;1.388;2022-07-29T05:13:14;99851.03;;;23.54;52.00
24234;BME280;12365;43.554;1.388;2022-07-29T05:15:39;99835.06;;;23.59;52.21
24234;BME280;12365;43.554;1.388;2022-07-29T05:18:05;99822.63;;;23.61;52.18
24234;BME280;12365;43.554;1.388;2022-07-29T05:20:30;99806.63;;;23.63;52.37
24234;BME280;12365;43.554;1.388;2022-07-29T05:22:57;99817.28;;;23.61;52.33
24234;BME280;12365;43.554;1.388;2022-07-29T05:25:24;99869.72;;;23.51;52.54
24234;BME280;12365;43.554;1.388;2022-07-29T05:27:50;99916.81;;;23.39;52.71
24234;BME280;12365;43.554;1.388;2022-07-29T05:30:15;99937.22;;;23.33;52.95
24234;BME280;12365;43.554;1.388;2022-07-29T05:32:41;99949.66;;;23.27;53.27
24234;BME280;12365;43.554;1.388;2022-07-29T05:35:07;99937.25;;;23.13;53.48
24234;BME280;12365;43.554;1.388;2022-07-29T05:37:33;99927.50;;;23.05;53.60
24234;BME280;12365;43.554;1.388;2022-07-29T05:39:58;99920.38;;;23.04;53.75
24234;BME280;12365;43.554;1.388;2022-07-29T05:42:24;99942.56;;;23.09;53.97
24234;BME280;12365;43.554;1.388;2022-07-29T05:44:50;99935.50;;;23.08;54.00
24234;BME280;12365;43.554;1.388;2022-07-29T05:47:15;99909.78;;;23.07;53.87
24234;BME280;12365;43.554;1.388;2022-07-29T05:49:41;99916.84;;;23.11;54.11
24234;BME280;12365;43.554;1.388;2022-07-29T05:52:06;99901.75;;;23.13;54.20
24234;BME280;12365;43.554;1.388;2022-07-29T05:54:32;99862.69;;;23.17;54.25
24234;BME280;12365;43.554;1.388;2022-07-29T05:56:57;99895.53;;;23.23;54.14
24234;BME280;12365;43.554;1.388;2022-07-29T05:59:23;99899.97;;;23.21;54.23
24234;BME280;12365;43.554;1.388;2022-07-29T06:01:48;99846.72;;;23.23;54.34
24234;BME280;12365;43.554;1.388;2022-07-29T06:04:13;99840.50;;;23.25;54.24
24234;BME280;12365;43.554;1.388;2022-07-29T06:06:39;99841.41;;;23.27;54.35
24234;BME280;12365;43.554;1.388;2022-07-29T06:09:04;99865.34;;;23.27;54.47
24234;BME280;12365;43.554;1.388;2022-07-29T06:11:29;99909.72;;;23.28;54.52
24234;BME280;12365;43.554;1.388;2022-07-29T06:13:55;99937.25;;;23.26;54.59
24234;BME280;12365;43.554;1.388;2022-07-29T06:16:20;99991.38;;;23.19;54.58
24234;BME280;12365;43.554;1.388;2022-07-29T06:18:46;99983.41;;;23.09;54.88
24234;BME280;12365;43.554;1.388;2022-07-29T06:21:11;99974.53;;;23.03;55.21
24234;BME280;12365;43.554;1.388;2022-07-29T06:23:37;99966.53;;;23.00;55.20
24234;BME280;12365;43.554;1.388;2022-07-29T06:26:04;99955.00;;;22.98;55.25
24234;BME280;12365;43.554;1.388;2022-07-29T06:28:29;99962.09;;;22.97;55.27
24234;BME280;12365;43.554;1.388;2022-07-29T06:30:55;99966.50;;;22.95;55.32
24234;BME280;12365;43.554;1.388;2022-07-29T06:33:20;99959.41;;;22.96;55.41
24234;BME280;12365;43.554;1.388;2022-07-29T06:35:45;99958.56;;;23.00;55.57
24234;BME280;12365;43.554;1.388;2022-07-29T06:38:13;99954.13;;;23.05;55.49
24234;BME280;12365;43.554;1.388;2022-07-29T06:40:42;99970.97;;;23.08;55.52
24234;BME280;12365;43.554;1.388;2022-07-29T06:43:37;99991.38;;;23.11;55.46
24234;BME280;12365;43.554;1.388;2022-07-29T06:46:09;99995.84;;;23.12;55.55
24234;BME280;12365;43.554;1.388;2022-07-29T06:48:36;99995.84;;;23.12;55.61
24234;BME280;12365;43.554;1.388;2022-07-29T06:51:03;100011.81;;;23.20;55.60
24234;BME280;12365;43.554;1.388;2022-07-29T06:53:29;100023.34;;;23.17;55.66
24234;BME280;12365;43.554;1.388;2022-07-29T06:55:55;100028.66;;;23.17;55.73
24234;BME280;12365;43.554;1.388;2022-07-29T06:58:21;100046.41;;;23.18;55.71
24234;BME280;12365;43.554;1.388;2022-07-29T07:00:47;100041.06;;;23.17;55.72
24234;BME280;12365;43.554;1.388;2022-07-29T07:03:13;100033.09;;;23.17;55.93
24234;BME280;12365;43.554;1.388;2022-07-29T07:05:39;100031.31;;;23.23;55.92
24234;BME280;12365;43.554;1.388;2022-07-29T07:08:05;100041.09;;;23.27;55.62
24234;BME280;12365;43.554;1.388;2022-07-29T07:10:30;100028.66;;;23.26;55.91
24234;BME280;12365;43.554;1.388;2022-07-29T07:12:56;100014.47;;;23.27;55.78
24234;BME280;12365;43.554;1.388;2022-07-29T07:15:21;100019.78;;;23.30;55.78
24234;BME280;12365;43.554;1.388;2022-07-29T07:17:49;99995.81;;;23.33;55.69
24234;BME280;12365;43.554;1.388;2022-07-29T07:20:17;99993.16;;;23.35;55.80
24234;BME280;12365;43.554;1.388;2022-07-29T07:22:43;100002.03;;;23.39;55.58
24234;BME280;12365;43.554;1.388;2022-07-29T07:25:11;100026.88;;;23.47;55.53
24234;BME280;12365;43.554;1.388;2022-07-29T07:27:37;100035.75;;;23.53;55.72
24234;BME280;12365;43.554;1.388;2022-07-29T07:30:04;100048.19;;;23.56;55.62
24234;BME280;12365;43.554;1.388;2022-07-29T07:32:31;100038.44;;;23.53;55.57
24234;BME280;12365;43.554;1.388;2022-07-29T07:34:57;100028.66;;;23.48;55.54
24234;BME280;12365;43.554;1.388;2022-07-29T07:37:22;100023.34;;;23.48;55.62
24234;BME280;12365;43.554;1.388;2022-07-29T07:39:49;100020.66;;;23.51;55.69
24234;BME280;12365;43.554;1.388;2022-07-29T07:42:15;100028.66;;;23.60;55.58
24234;BME280;12365;43.554;1.388;2022-07-29T07:44:40;100033.97;;;23.63;55.54
24234;BME280;12365;43.554;1.388;2022-07-29T07:47:05;100040.19;;;23.65;55.59
24234;BME280;12365;43.554;1.388;2022-07-29T07:49:31;100038.41;;;23.67;55.61
24234;BME280;12365;43.554;1.388;2022-07-29T07:51:56;100029.53;;;23.71;55.61
24234;BME280;12365;43.554;1.388;2022-07-29T07:54:22;100031.31;;;23.71;55.47
24234;BME280;12365;43.554;1.388;2022-07-29T07:56:47;100029.53;;;23.71;55.61
24234;BME280;12365;43.554;1.388;2022-07-29T07:59:16;100045.50;;;23.71;55.40
24234;BME280;12365;43.554;1.388;2022-07-29T08:01:41;100045.56;;;23.73;55.37
24234;BME280;12365;43.554;1.388;2022-07-29T08:04:07;100047.28;;;23.66;55.42
24234;BME280;12365;43.554;1.388;2022-07-29T08:06:33;100049.06;;;23.67;55.33
24234;BME280;12365;43.554;1.388;2022-07-29T08:09:03;100038.41;;;23.72;55.32
24234;BME280;12365;43.554;1.388;2022-07-29T08:11:29;100032.22;;;23.81;55.30
24234;BME280;12365;43.554;1.388;2022-07-29T08:13:55;100042.84;;;23.90;55.23
24234;BME280;12365;43.554;1.388;2022-07-29T08:16:21;100048.16;;;23.90;55.31
24234;BME280;12365;43.554;1.388;2022-07-29T08:18:46;100041.06;;;23.89;55.19
24234;BME280;12365;43.554;1.388;2022-07-29T08:21:13;100055.28;;;23.92;55.18
24234;BME280;12365;43.554;1.388;2022-07-29T08:23:39;100088.13;;;24.02;55.29
24234;BME280;12365;43.554;1.388;2022-07-29T08:26:10;100104.13;;;24.05;54.65
24234;BME280;12365;43.554;1.388;2022-07-29T08:28:38;100095.25;;;24.00;54.87
24234;BME280;12365;43.554;1.388;2022-07-29T08:31:04;100092.59;;;23.98;54.94
24234;BME280;12365;43.554;1.388;2022-07-29T08:33:29;100109.47;;;23.97;55.17
24234;BME280;12365;43.554;1.388;2022-07-29T08:35:55;100113.94;;;23.94;55.13
24234;BME280;12365;43.554;1.388;2022-07-29T08:38:20;100111.28;;;23.83;55.27
24234;BME280;12365;43.554;1.388;2022-07-29T08:40:46;100117.47;;;23.77;55.48
24234;BME280;12365;43.554;1.388;2022-07-29T08:43:11;100112.13;;;23.68;55.60
24234;BME280;12365;43.554;1.388;2022-07-29T08:45:43;100101.47;;;23.59;55.50
24234;BME280;12365;43.554;1.388;2022-07-29T08:48:11;100099.69;;;23.61;55.75
24234;BME280;12365;43.554;1.388;2022-07-29T08:50:37;100096.13;;;23.62;55.63
24234;BME280;12365;43.554;1.388;2022-07-29T08:53:04;100103.25;;;23.68;55.73
24234;BME280;12365;43.554;1.388;2022-07-29T08:55:30;100109.47;;;23.67;55.53
24234;BME280;12365;43.554;1.388;2022-07-29T08:57:56;100117.47;;;23.68;55.74
24234;BME280;12365;43.554;1.388;2022-07-29T09:00:23;100110.38;;;23.73;55.80
24234;BME280;12365;43.554;1.388;2022-07-29T09:02:57;100105.94;;;23.82;55.69
24234;BME280;12365;43.554;1.388;2022-07-29T09:05:24;100101.50;;;23.81;55.60
24234;BME280;12365;43.554;1.388;2022-07-29T09:07:51;100096.16;;;23.84;55.48
24234;BME280;12365;43.554;1.388;2022-07-29T09:10:17;100092.63;;;23.88;55.35
24234;BME280;12365;43.554;1.388;2022-07-29T09:12:42;100078.38;;;23.92;55.32
24234;BME280;12365;43.554;1.388;2022-07-29T09:15:08;100071.28;;;23.98;55.37
24234;BME280;12365;43.554;1.388;2022-07-29T09:17:47;100063.25;;;24.09;55.33
24234;BME280;12365;43.554;1.388;2022-07-29T09:20:18;100064.97;;;24.22;55.05
24234;BME280;12365;43.554;1.388;2022-07-29T09:22:44;100058.72;;;24.30;54.81
24234;BME280;12365;43.554;1.388;2022-07-29T09:25:15;100045.38;;;24.47;54.63
24234;BME280;12365;43.554;1.388;2022-07-29T09:28:05;100037.25;;;24.63;54.13
24234;BME280;12365;43.554;1.388;2022-07-29T09:30:30;100015.88;;;24.71;54.14
24234;BME280;12365;43.554;1.388;2022-07-29T09:32:58;100003.44;;;24.69;53.87
24234;BME280;12365;43.554;1.388;2022-07-29T09:35:26;99990.13;;;24.64;53.98
24234;BME280;12365;43.554;1.388;2022-07-29T09:37:52;99999.94;;;24.57;54.18
24234;BME280;12365;43.554;1.388;2022-07-29T09:40:22;99999.09;;;24.52;53.83
24234;BME280;12365;43.554;1.388;2022-07-29T09:42:48;100013.31;;;24.50;54.00
24234;BME280;12365;43.554;1.388;2022-07-29T09:47:52;100043.50;;;24.64;54.04
24234;BME280;12365;43.554;1.388;2022-07-29T09:50:20;100053.25;;;24.70;53.65
24234;BME280;12365;43.554;1.388;2022-07-29T09:52:52;100065.50;;;25.01;53.74
24234;BME280;12365;43.554;1.388;2022-07-29T09:55:19;100079.44;;;25.49;52.81
24234;BME280;12365;43.554;1.388;2022-07-29T09:57:45;100087.09;;;25.96;52.15
24234;BME280;12365;43.554;1.388;2022-07-29T10:00:16;100079.63;;;26.27;51.65
24234;BME280;12365;43.554;1.388;2022-07-29T10:02:44;100082.69;;;26.70;51.24
24234;BME280;12365;43.554;1.388;2022-07-29T10:05:23;100071.41;;;27.10;51.06
24234;BME280;12365;43.554;1.388;2022-07-29T10:07:54;100078.06;;;27.43;50.22
24234;BME280;12365;43.554;1.388;2022-07-29T10:10:37;100072.38;;;27.62;49.84
24234;BME280;12365;43.554;1.388;2022-07-29T10:13:05;100066.88;;;27.71;49.41
24234;BME280;12365;43.554;1.388;2022-07-29T10:15:33;100062.31;;;27.75;49.14
24234;BME280;12365;43.554;1.388;2022-07-29T10:18:02;100058.91;;;27.66;49.07
24234;BME280;12365;43.554;1.388;2022-07-29T10:20:28;100049.72;;;27.80;48.96
24234;BME280;12365;43.554;1.388;2022-07-29T10:22:54;100063.88;;;27.91;48.80
24234;BME280;12365;43.554;1.388;2022-07-29T10:25:20;100046.38;;;28.17;48.23
24234;BME280;12365;43.554;1.388;2022-07-29T10:27:47;100047.38;;;28.56;47.88
24234;BME280;12365;43.554;1.388;2022-07-29T10:30:14;100035.78;;;28.94;47.25
24234;BME280;12365;43.554;1.388;2022-07-29T10:32:51;100032.69;;;29.13;46.80
24234;BME280;12365;43.554;1.388;2022-07-29T10:35:33;100035.94;;;29.26;46.52
24234;BME280;12365;43.554;1.388;2022-07-29T10:38:07;100044.72;;;29.34;46.04
24234;BME280;12365;43.554;1.388;2022-07-29T10:40:57;100031.63;;;29.54;45.44
24234;BME280;12365;43.554;1.388;2022-07-29T10:43:46;100027.56;;;29.75;45.17
24234;BME280;12365;43.554;1.388;2022-07-29T10:46:13;100026.91;;;29.64;44.62
24234;BME280;12365;43.554;1.388;2022-07-29T10:54:18;100012.19;;;29.79;44.01
24234;BME280;12365;43.554;1.388;2022-07-29T10:56:43;100019.53;;;30.05;43.93
24234;BME280;12365;43.554;1.388;2022-07-29T11:01:47;100013.03;;;30.45;42.76
24234;BME280;12365;43.554;1.388;2022-07-29T11:04:13;100001.69;;;30.63;42.40
24234;BME280;12365;43.554;1.388;2022-07-29T11:09:27;99989.44;;;30.83;42.16
24234;BME280;12365;43.554;1.388;2022-07-29T11:11:55;99991.84;;;30.92;41.67
24234;BME280;12365;43.554;1.388;2022-07-29T11:17:18;99988.97;;;30.97;41.46
24234;BME280;12365;43.554;1.388;2022-07-29T11:19:43;99992.81;;;30.90;41.27
24234;BME280;12365;43.554;1.388;2022-07-29T11:22:10;99990.63;;;30.73;41.06
24234;BME280;12365;43.554;1.388;2022-07-29T11:24:36;99994.13;;;30.47;41.36
24234;BME280;12365;43.554;1.388;2022-07-29T11:27:16;99994.13;;;30.15;40.88
24234;BME280;12365;43.554;1.388;2022-07-29T11:29:54;99995.84;;;29.87;41.41
24234;BME280;12365;43.554;1.388;2022-07-29T11:32:22;99991.97;;;29.97;41.56
24234;BME280;12365;43.554;1.388;2022-07-29T11:34:49;99995.03;;;30.16;40.83
24234;BME280;12365;43.554;1.388;2022-07-29T11:37:17;99993.69;;;30.31;40.71
24234;BME280;12365;43.554;1.388;2022-07-29T11:40:07;99989.41;;;30.53;40.42
24234;BME280;12365;43.554;1.388;2022-07-29T11:47:51;99994.91;;;30.50;39.95
24234;BME280;12365;43.554;1.388;2022-07-29T11:50:32;99981.94;;;30.33;40.54
24234;BME280;12365;43.554;1.388;2022-07-29T11:52:58;99977.91;;;30.48;40.01
24234;BME280;12365;43.554;1.388;2022-07-29T11:55:24;99979.09;;;30.67;40.02
24234;BME280;12365;43.554;1.388;2022-07-29T11:57:52;99985.03;;;30.79;39.73
24234;BME280;12365;43.554;1.388;2022-07-29T12:00:33;99979.41;;;30.86;39.60
24234;BME280;12365;43.554;1.388;2022-07-29T12:02:59;99975.94;;;30.83;39.75
24234;BME280;12365;43.554;1.388;2022-07-29T12:05:51;99983.47;;;30.72;40.07
24234;BME280;12365;43.554;1.388;2022-07-29T12:08:21;99990.03;;;30.63;40.24
24234;BME280;12365;43.554;1.388;2022-07-29T12:10:48;99987.03;;;30.44;39.94
24234;BME280;12365;43.554;1.388;2022-07-29T12:13:16;99987.53;;;30.27;40.25
24234;BME280;12365;43.554;1.388;2022-07-29T12:15:42;99992.16;;;30.20;40.07
24234;BME280;12365;43.554;1.388;2022-07-29T12:18:17;99985.88;;;30.21;40.17
24234;BME280;12365;43.554;1.388;2022-07-29T12:20:43;99988.56;;;30.21;40.44
24234;BME280;12365;43.554;1.388;2022-07-29T12:23:10;99988.66;;;30.18;40.01
24234;BME280;12365;43.554;1.388;2022-07-29T12:25:41;99992.44;;;30.11;40.01
24234;BME280;12365;43.554;1.388;2022-07-29T12:28:11;100005.78;;;30.16;40.43
24234;BME280;12365;43.554;1.388;2022-07-29T12:30:39;99999.44;;;30.18;40.27
24234;BME280;12365;43.554;1.388;2022-07-29T12:33:18;99999.34;;;30.21;39.85
24234;BME280;12365;43.554;1.388;2022-07-29T12:35:58;100004.16;;;30.41;39.64
24234;BME280;12365;43.554;1.388;2022-07-29T12:38:24;100001.59;;;30.66;39.72
24234;BME280;12365;43.554;1.388;2022-07-29T12:40:52;100001.63;;;30.95;39.20
24234;BME280;12365;43.554;1.388;2022-07-29T12:43:22;100003.25;;;31.27;38.62
24234;BME280;12365;43.554;1.388;2022-07-29T12:45:50;100008.69;;;31.53;38.48
24234;BME280;12365;43.554;1.388;2022-07-29T12:48:16;100001.41;;;31.56;38.21
24234;BME280;12365;43.554;1.388;2022-07-29T12:50:59;99996.94;;;31.55;38.02
24234;BME280;12365;43.554;1.388;2022-07-29T12:53:25;99996.34;;;31.46;38.24
24234;BME280;12365;43.554;1.388;2022-07-29T12:55:53;99993.63;;;31.46;38.15
24234;BME280;12365;43.554;1.388;2022-07-29T12:58:45;100000.13;;;31.41;38.40
24234;BME280;12365;43.554;1.388;2022-07-29T13:01:18;100002.59;;;31.20;38.01
24234;BME280;12365;43.554;1.388;2022-07-29T13:03:56;99999.81;;;30.95;38.69
24234;BME280;12365;43.554;1.388;2022-07-29T13:06:44;99999.94;;;30.92;38.09
24234;BME280;12365;43.554;1.388;2022-07-29T13:09:13;99995.03;;;30.75;38.35
24234;BME280;12365;43.554;1.388;2022-07-29T13:11:43;99995.38;;;30.64;38.26
24234;BME280;12365;43.554;1.388;2022-07-29T13:14:11;99994.78;;;30.55;38.33
24234;BME280;12365;43.554;1.388;2022-07-29T13:17:04;99983.13;;;30.54;38.18
24234;BME280;12365;43.554;1.388;2022-07-29T13:22:02;99994.44;;;30.36;38.63
24234;BME280;12365;43.554;1.388;2022-07-29T13:24:28;99991.00;;;30.31;38.86
24234;BME280;12365;43.554;1.388;2022-07-29T13:26:53;99995.19;;;30.41;38.56
24234;BME280;12365;43.554;1.388;2022-07-29T13:29:19;100008.56;;;30.44;38.27
24234;BME280;12365;43.554;1.388;2022-07-29T13:31:44;100005.06;;;30.40;38.54
24234;BME280;12365;43.554;1.388;2022-07-29T13:34:09;100009.78;;;30.34;38.35
24234;BME280;12365;43.554;1.388;2022-07-29T13:36:35;100017.13;;;30.29;38.85
24234;BME280;12365;43.554;1.388;2022-07-29T13:39:01;100020.78;;;30.26;38.89
24234;BME280;12365;43.554;1.388;2022-07-29T13:41:27;100018.97;;;30.27;39.07